Time;durP1;ratioP1;P1;durP2;ratioP2;P2;SDS_P1;SDS_P2;PMS_P1;PMS_P2;Temp;Humidity;BMP_temperature;BMP_pressure;BME280_temperature;BME280_humidity;BME280_pressure;Samples;Min_cycle;Max_cycle;Signal;HPM_P1;HPM_P2
2022/03/20 00:01:26;;;;;;;12.45;7.57;;;5.70;99.90;;;;;;4992112;28;20065;-62
2022/03/20 00:03:52;;;;;;;15.23;7.10;;;5.80;99.90;;;;;;4993412;28;20042;-62
2022/03/20 00:06:17;;;;;;;13.50;7.63;;;5.70;99.90;;;;;;5148266;23;20064;-62
2022/03/20 00:08:43;;;;;;;13.93;7.50;;;5.80;99.90;;;;;;5039950;28;20032;-62
2022/03/20 00:11:08;;;;;;;11.85;7.53;;;5.70;99.90;;;;;;5032927;28;20037;-61
2022/03/20 00:13:34;;;;;;;14.48;7.95;;;5.70;99.90;;;;;;5050444;28;20074;-62
2022/03/20 00:15:59;;;;;;;15.07;7.57;;;5.70;99.90;;;;;;5047042;28;20029;-62
2022/03/20 00:18:26;;;;;;;11.60;6.63;;;5.70;99.90;;;;;;5048961;28;20777;-62
2022/03/20 00:20:59;;;;;;;12.63;7.53;;;5.70;99.90;;;;;;5050002;28;20045;-62
2022/03/20 00:23:26;;;;;;;11.98;7.70;;;5.70;99.90;;;;;;5046397;28;20034;-62
2022/03/20 00:25:53;;;;;;;16.75;7.20;;;5.60;99.90;;;;;;5035546;28;20120;-61
2022/03/20 00:30:47;;;;;;;13.77;7.50;;;5.60;99.90;;;;;;4996646;28;20061;-61
2022/03/20 00:33:13;;;;;;;14.43;7.60;;;5.50;99.90;;;;;;5015265;28;20033;-61
2022/03/20 00:35:39;;;;;;;12.55;7.50;;;5.50;99.90;;;;;;5014151;28;20031;-61
2022/03/20 00:38:06;;;;;;;16.90;8.55;;;5.50;99.90;;;;;;5030381;28;20037;-61
2022/03/20 00:40:32;;;;;;;13.77;7.75;;;5.50;99.90;;;;;;5030850;28;20507;-61
2022/03/20 00:48:09;;;;;;;17.25;7.88;;;5.40;99.90;;;;;;5165775;22;20512;-61
2022/03/20 00:50:35;;;;;;;15.38;8.20;;;5.40;99.90;;;;;;5030284;28;20037;-62
2022/03/20 01:00:47;;;;;;;16.90;8.85;;;5.40;99.90;;;;;;5378634;22;20066;-62
2022/03/20 01:03:13;;;;;;;16.75;9.35;;;5.50;99.90;;;;;;5046944;28;20490;-62
2022/03/20 01:05:39;;;;;;;15.80;8.85;;;5.50;99.90;;;;;;5039462;28;20041;-61
2022/03/20 01:08:04;;;;;;;15.10;8.98;;;5.50;99.90;;;;;;5045485;28;20033;-62
2022/03/20 01:10:30;;;;;;;15.23;8.85;;;5.50;99.90;;;;;;5049569;28;20554;-62
2022/03/20 01:15:31;;;;;;;16.30;9.80;;;5.50;99.90;;;;;;5189858;22;20504;-62
2022/03/20 01:17:57;;;;;;;16.58;9.38;;;5.50;99.90;;;;;;5011460;28;20045;-62
2022/03/20 01:22:58;;;;;;;16.02;9.75;;;5.50;99.90;;;;;;5091522;22;20458;-61
2022/03/20 01:28:31;;;;;;;19.10;10.15;;;5.40;99.90;;;;;;6223320;22;20027;-62
2022/03/20 01:30:57;;;;;;;17.77;10.43;;;5.40;99.90;;;;;;5027579;28;20060;-62
2022/03/20 01:33:22;;;;;;;18.83;11.15;;;5.30;99.90;;;;;;5030572;28;20038;-62
2022/03/20 01:35:48;;;;;;;19.05;11.65;;;5.30;99.90;;;;;;5033939;28;20586;-61
2022/03/20 01:38:19;;;;;;;20.10;11.07;;;5.30;99.90;;;;;;5034073;28;20041;-62
2022/03/20 01:40:46;;;;;;;17.50;11.27;;;5.20;99.90;;;;;;5032055;28;20509;-62
2022/03/20 01:43:12;;;;;;;24.27;11.27;;;5.20;99.90;;;;;;5027853;23;20033;-62
2022/03/20 01:45:38;;;;;;;18.60;10.70;;;5.10;99.90;;;;;;5033169;28;20041;-62
2022/03/20 01:48:03;;;;;;;18.77;11.93;;;5.10;99.90;;;;;;5029715;28;20036;-62
2022/03/20 01:50:31;;;;;;;24.60;11.98;;;5.10;99.90;;;;;;5035710;28;20435;-62
2022/03/20 01:52:58;;;;;;;19.95;11.52;;;5.10;99.90;;;;;;5033234;28;20030;-62
2022/03/20 01:55:25;;;;;;;18.35;11.85;;;5.00;99.90;;;;;;5033800;28;20041;-63
2022/03/20 01:57:54;;;;;;;19.83;11.52;;;5.00;99.90;;;;;;5027564;28;20041;-62
2022/03/20 02:00:21;;;;;;;19.25;11.93;;;5.00;99.90;;;;;;5030294;28;20038;-62
2022/03/20 02:02:47;;;;;;;21.35;11.48;;;4.90;99.90;;;;;;5032856;28;20518;-62
2022/03/20 02:05:13;;;;;;;20.73;11.48;;;4.80;99.90;;;;;;5030360;28;20037;-62
2022/03/20 02:07:40;;;;;;;20.25;11.98;;;4.80;99.90;;;;;;5030888;28;20040;-63
2022/03/20 02:10:08;;;;;;;20.27;11.88;;;4.80;99.90;;;;;;5033437;28;20038;-62
2022/03/20 02:12:36;;;;;;;23.35;11.95;;;4.70;99.90;;;;;;5033308;28;20098;-63
2022/03/20 02:15:03;;;;;;;21.30;12.10;;;4.70;99.90;;;;;;5025004;28;20056;-63
2022/03/20 02:17:30;;;;;;;22.60;12.43;;;4.60;99.90;;;;;;5032979;28;20087;-62
2022/03/20 02:20:03;;;;;;;18.08;11.23;;;4.60;99.90;;;;;;5033259;28;20045;-62
2022/03/20 02:22:28;;;;;;;22.13;11.30;;;4.60;99.90;;;;;;5004821;28;20542;-62
2022/03/20 02:24:54;;;;;;;19.67;11.55;;;4.60;99.90;;;;;;5027931;28;20065;-61
2022/03/20 02:27:27;;;;;;;21.85;12.25;;;4.50;99.90;;;;;;5033166;28;20033;-62
2022/03/20 02:30:00;;;;;;;24.48;12.23;;;4.40;99.90;;;;;;5027841;28;20094;-61
2022/03/20 02:32:28;;;;;;;20.95;12.25;;;4.30;99.90;;;;;;5032319;28;20037;-62
2022/03/20 02:35:04;;;;;;;20.60;11.65;;;4.30;99.90;;;;;;5032808;28;20029;-62
2022/03/20 02:37:31;;;;;;;21.13;12.55;;;4.30;99.90;;;;;;5024411;28;20034;-63
2022/03/20 02:39:59;;;;;;;25.05;12.75;;;4.30;99.90;;;;;;5023011;28;20403;-62
2022/03/20 02:42:26;;;;;;;22.63;12.02;;;4.30;99.90;;;;;;5031227;28;20052;-61
2022/03/20 02:45:08;;;;;;;22.73;12.00;;;4.30;99.90;;;;;;5032918;28;20045;-62
2022/03/20 02:47:35;;;;;;;20.98;12.27;;;4.20;99.90;;;;;;5027557;28;20030;-62
2022/03/20 02:50:06;;;;;;;21.33;12.45;;;4.10;99.90;;;;;;5024351;28;20029;-62
2022/03/20 02:52:54;;;;;;;24.95;12.52;;;4.10;99.90;;;;;;5032434;28;20049;-62
2022/03/20 02:55:30;;;;;;;24.25;13.00;;;4.10;99.90;;;;;;5023162;28;20528;-62
2022/03/20 02:57:59;;;;;;;22.98;13.00;;;3.90;99.90;;;;;;5030430;28;20041;-62
2022/03/20 03:00:28;;;;;;;22.98;12.18;;;4.00;99.90;;;;;;5032518;28;20049;-61
2022/03/20 03:02:55;;;;;;;26.30;13.13;;;4.00;99.90;;;;;;5032210;28;20041;-62
2022/03/20 03:05:23;;;;;;;24.15;12.85;;;3.90;99.90;;;;;;5022629;28;20042;-62
2022/03/20 03:13:24;;;;;;;24.55;13.00;;;3.80;99.90;;;;;;5022988;28;20120;-62
2022/03/20 03:15:54;;;;;;;21.27;13.25;;;3.80;99.90;;;;;;5032136;28;20034;-62
2022/03/20 03:18:20;;;;;;;24.67;12.85;;;3.90;99.90;;;;;;5032490;28;20111;-62
2022/03/20 03:20:47;;;;;;;21.80;12.90;;;3.80;99.90;;;;;;5032198;28;20503;-62
2022/03/20 03:23:13;;;;;;;21.27;12.63;;;3.80;99.90;;;;;;5020603;28;20095;-62
2022/03/20 03:25:40;;;;;;;22.40;11.82;;;3.80;99.90;;;;;;5031677;28;20033;-62
2022/03/20 03:28:06;;;;;;;25.25;14.55;;;3.80;99.90;;;;;;5028245;28;20103;-62
2022/03/20 03:30:33;;;;;;;21.90;12.35;;;3.80;99.90;;;;;;5030682;28;20083;-62
2022/03/20 03:33:00;;;;;;;25.05;13.63;;;3.90;99.90;;;;;;5031123;28;20052;-62
2022/03/20 03:35:51;;;;;;;24.77;13.23;;;3.80;99.90;;;;;;5032106;28;20491;-63
2022/03/20 03:38:19;;;;;;;23.48;13.02;;;3.80;99.90;;;;;;5025437;28;20033;-62
2022/03/20 03:40:47;;;;;;;26.13;13.55;;;3.70;99.90;;;;;;5011790;28;20383;-62
2022/03/20 03:43:15;;;;;;;25.00;13.90;;;3.70;99.90;;;;;;5031612;28;20037;-62
2022/03/20 03:45:41;;;;;;;25.92;14.05;;;3.70;99.90;;;;;;5024437;28;20069;-61
2022/03/20 03:48:08;;;;;;;25.00;13.52;;;3.70;99.90;;;;;;5030420;28;20091;-62
2022/03/20 03:50:34;;;;;;;27.30;15.20;;;3.70;99.90;;;;;;5031457;28;20121;-62
2022/03/20 03:53:00;;;;;;;25.48;14.07;;;3.60;99.90;;;;;;5013672;28;20124;-63
2022/03/20 03:55:26;;;;;;;29.17;15.27;;;3.60;99.90;;;;;;5028207;28;20494;-62
2022/03/20 03:57:51;;;;;;;24.33;13.73;;;3.60;99.90;;;;;;5031035;28;20455;-62
2022/03/20 04:00:18;;;;;;;30.70;15.20;;;3.60;99.90;;;;;;5031470;28;20067;-62
2022/03/20 04:02:44;;;;;;;26.17;14.65;;;3.50;99.90;;;;;;5025425;28;20042;-62
2022/03/20 04:05:10;;;;;;;27.83;14.93;;;3.50;99.90;;;;;;5030919;28;20522;-62
2022/03/20 04:07:36;;;;;;;29.92;15.30;;;3.50;99.90;;;;;;5031022;28;20045;-63
2022/03/20 04:10:05;;;;;;;30.05;16.02;;;3.50;99.90;;;;;;5026883;28;20038;-62
2022/03/20 04:12:31;;;;;;;28.20;15.18;;;3.50;99.90;;;;;;5020620;28;20026;-62
2022/03/20 04:15:02;;;;;;;26.48;14.50;;;3.50;99.90;;;;;;5012691;28;20041;-62
2022/03/20 04:17:28;;;;;;;26.73;14.38;;;3.40;99.90;;;;;;5031304;28;20499;-62
2022/03/20 04:19:54;;;;;;;26.95;15.45;;;3.40;99.90;;;;;;5025441;28;20050;-62
2022/03/20 04:22:19;;;;;;;31.67;16.52;;;3.50;99.90;;;;;;5007897;28;20057;-62
2022/03/20 04:24:45;;;;;;;28.05;15.75;;;3.50;99.90;;;;;;5014768;28;20033;-62
2022/03/20 04:27:13;;;;;;;26.58;14.77;;;3.50;99.90;;;;;;5028972;28;20091;-62
2022/03/20 04:29:39;;;;;;;33.20;16.42;;;3.40;99.90;;;;;;5030324;28;20037;-62
2022/03/20 04:32:06;;;;;;;30.42;16.65;;;3.40;99.90;;;;;;5030542;28;20053;-62
2022/03/20 04:34:31;;;;;;;30.55;16.38;;;3.30;99.90;;;;;;5023984;28;20037;-62
2022/03/20 04:36:57;;;;;;;29.63;16.30;;;3.30;99.90;;;;;;5029510;28;20087;-63
2022/03/20 04:39:24;;;;;;;29.25;16.13;;;3.30;99.90;;;;;;5030643;28;20034;-62
2022/03/20 04:41:50;;;;;;;34.42;17.05;;;3.30;99.90;;;;;;5030852;28;20038;-62
2022/03/20 04:44:16;;;;;;;29.75;17.08;;;3.20;99.90;;;;;;5024076;28;20037;-62
2022/03/20 04:46:41;;;;;;;31.95;16.77;;;3.20;99.90;;;;;;5023716;28;20068;-62
2022/03/20 05:00:06;;;;;;;35.17;17.65;;;3.20;99.90;;;;;;5030638;28;20555;-61
2022/03/20 05:02:31;;;;;;;34.03;17.55;;;3.20;99.90;;;;;;5021295;28;20064;-62
2022/03/20 05:04:57;;;;;;;30.08;18.02;;;3.20;99.90;;;;;;5029741;28;20061;-62
2022/03/20 05:07:22;;;;;;;30.13;17.25;;;3.10;99.90;;;;;;5030129;28;20074;-62
2022/03/20 05:15:17;;;;;;;29.30;17.10;;;3.10;99.90;;;;;;5030571;28;20069;-61
2022/03/20 05:17:42;;;;;;;35.20;17.65;;;3.20;99.90;;;;;;5014569;28;20038;-62
2022/03/20 05:20:08;;;;;;;38.28;19.08;;;3.10;99.90;;;;;;5029899;28;20033;-62
2022/03/20 05:22:37;;;;;;;35.55;18.90;;;3.10;99.90;;;;;;5029769;28;20492;-62
2022/03/20 05:25:07;;;;;;;35.80;18.95;;;3.10;99.90;;;;;;5022760;28;20480;-62
2022/03/20 05:27:33;;;;;;;30.88;17.73;;;3.10;99.90;;;;;;5026708;28;20037;-63
2022/03/20 05:29:58;;;;;;;33.97;18.85;;;3.20;99.90;;;;;;5029987;28;20041;-62
2022/03/20 05:32:24;;;;;;;32.50;19.00;;;3.10;99.90;;;;;;5026687;28;20033;-62
2022/03/20 05:34:51;;;;;;;37.05;18.63;;;3.20;99.90;;;;;;5027683;28;20030;-62
2022/03/20 05:37:16;;;;;;;31.73;18.75;;;3.20;99.90;;;;;;5022772;28;20411;-62
2022/03/20 05:39:42;;;;;;;34.60;19.80;;;3.10;99.90;;;;;;5029300;28;20034;-62
2022/03/20 05:42:08;;;;;;;36.45;19.13;;;3.10;99.90;;;;;;5023003;28;20079;-61
2022/03/20 05:44:34;;;;;;;34.75;18.58;;;3.10;99.90;;;;;;5022211;28;20037;-62
2022/03/20 05:47:01;;;;;;;32.15;17.92;;;3.10;99.90;;;;;;5012317;28;20120;-61
2022/03/20 05:49:26;;;;;;;38.33;19.63;;;3.00;99.90;;;;;;5030212;28;20041;-62
2022/03/20 05:51:54;;;;;;;34.22;18.60;;;3.00;99.90;;;;;;5017637;28;20049;-61
2022/03/20 05:54:20;;;;;;;33.95;18.05;;;3.00;99.90;;;;;;5023756;28;20415;-62
2022/03/20 05:59:30;;;;;;;33.78;18.58;;;3.10;99.90;;;;;;5017431;28;20068;-62
2022/03/20 06:01:56;;;;;;;32.33;19.27;;;3.00;99.90;;;;;;5026167;28;20042;-61
2022/03/20 06:04:22;;;;;;;35.13;19.48;;;3.00;99.90;;;;;;5026585;28;20106;-61
2022/03/20 06:06:48;;;;;;;36.72;19.63;;;3.10;99.90;;;;;;5005297;28;20049;-62
2022/03/20 06:09:15;;;;;;;33.33;17.80;;;3.10;99.90;;;;;;5023669;28;20049;-62
2022/03/20 06:11:42;;;;;;;37.55;20.15;;;3.10;99.90;;;;;;5026610;28;20049;-63
2022/03/20 06:14:08;;;;;;;34.78;20.27;;;3.10;99.90;;;;;;5026894;28;20447;-63
2022/03/20 06:16:35;;;;;;;35.33;19.30;;;3.10;99.90;;;;;;5001348;28;20037;-62
2022/03/20 06:19:01;;;;;;;33.50;17.98;;;3.20;99.90;;;;;;5021046;28;20048;-62
2022/03/20 06:21:27;;;;;;;32.30;18.13;;;3.20;99.90;;;;;;5030598;28;20041;-63
2022/03/20 06:23:54;;;;;;;36.83;19.92;;;3.20;99.90;;;;;;5015255;28;20415;-62
2022/03/20 06:26:24;;;;;;;35.25;20.35;;;3.20;99.90;;;;;;5026826;28;20042;-62
2022/03/20 06:28:50;;;;;;;33.40;19.85;;;3.20;99.90;;;;;;5030271;28;20041;-62
2022/03/20 06:31:16;;;;;;;33.03;19.73;;;3.30;99.90;;;;;;5021553;28;20046;-63
2022/03/20 06:33:43;;;;;;;35.78;20.08;;;3.30;99.90;;;;;;5028716;28;20041;-63
2022/03/20 06:36:10;;;;;;;34.47;20.13;;;3.40;99.90;;;;;;5012086;28;20041;-62
2022/03/20 06:38:36;;;;;;;35.13;18.85;;;3.40;99.90;;;;;;5030358;28;20037;-63
2022/03/20 06:41:04;;;;;;;32.83;18.92;;;3.50;99.90;;;;;;5025465;28;20044;-63
2022/03/20 06:43:29;;;;;;;33.47;18.58;;;3.50;99.90;;;;;;5023073;28;20039;-62
2022/03/20 06:45:56;;;;;;;31.92;18.30;;;3.50;99.90;;;;;;5029434;28;20612;-62
2022/03/20 06:48:22;;;;;;;39.25;21.13;;;3.50;99.90;;;;;;5025241;28;20804;-62
2022/03/20 06:50:47;;;;;;;37.03;20.73;;;3.60;99.90;;;;;;5014290;28;20121;-62
2022/03/20 06:53:13;;;;;;;34.60;19.98;;;3.50;99.90;;;;;;5025628;28;20447;-62
2022/03/20 06:55:39;;;;;;;33.15;18.55;;;3.60;99.90;;;;;;5028268;28;20128;-62
2022/03/20 06:58:05;;;;;;;34.85;20.48;;;3.70;99.90;;;;;;5029512;28;20439;-63
2022/03/20 07:00:31;;;;;;;33.72;19.33;;;3.80;99.90;;;;;;5029553;28;20102;-61
2022/03/20 07:03:03;;;;;;;36.60;19.27;;;3.90;99.90;;;;;;5009860;28;20452;-60
2022/03/20 07:05:28;;;;;;;37.30;20.52;;;4.00;99.90;;;;;;5022345;28;20073;-62
2022/03/20 07:07:54;;;;;;;33.05;18.67;;;4.00;99.90;;;;;;5031901;28;20071;-62
2022/03/20 07:10:24;;;;;;;37.20;19.58;;;4.10;99.90;;;;;;5031762;28;20141;-62
2022/03/20 07:12:50;;;;;;;33.17;18.60;;;4.10;99.90;;;;;;5031909;28;20442;-62
2022/03/20 07:15:20;;;;;;;34.67;19.90;;;4.10;99.90;;;;;;5023479;28;20034;-61
2022/03/20 07:17:47;;;;;;;36.47;20.42;;;4.10;99.90;;;;;;5028216;28;20040;-62
2022/03/20 07:20:15;;;;;;;37.90;20.50;;;4.10;99.90;;;;;;5032319;28;20041;-62
2022/03/20 07:22:41;;;;;;;33.40;19.67;;;4.10;99.90;;;;;;5021007;28;20381;-62
2022/03/20 07:30:37;;;;;;;37.13;20.67;;;4.20;99.90;;;;;;5024840;28;20128;-62
2022/03/20 07:33:03;;;;;;;37.50;20.42;;;4.20;99.90;;;;;;5024974;28;20065;-62
2022/03/20 07:35:28;;;;;;;34.70;20.70;;;4.20;99.90;;;;;;5031832;28;20403;-61
2022/03/20 07:37:54;;;;;;;37.72;21.08;;;4.30;99.90;;;;;;5022396;28;20112;-61
2022/03/20 07:40:21;;;;;;;37.20;20.00;;;4.40;99.90;;;;;;5017925;28;20029;-61
2022/03/20 07:42:46;;;;;;;32.83;19.77;;;4.50;99.90;;;;;;5031638;22;20156;-61
2022/03/20 07:45:12;;;;;;;35.58;20.17;;;4.50;99.90;;;;;;5009652;28;20125;-61
2022/03/20 07:47:37;;;;;;;35.17;18.73;;;4.70;99.90;;;;;;5011071;28;20124;-61
2022/03/20 07:50:06;;;;;;;34.10;20.23;;;4.70;99.90;;;;;;5006276;28;20030;-61
2022/03/20 07:52:35;;;;;;;34.38;20.48;;;4.80;99.90;;;;;;5011033;28;20512;-61
2022/03/20 07:55:01;;;;;;;40.38;22.50;;;4.80;99.90;;;;;;5007871;28;20039;-61
2022/03/20 07:57:27;;;;;;;37.83;20.08;;;4.90;99.90;;;;;;5015590;28;20602;-60
2022/03/20 07:59:53;;;;;;;35.55;21.00;;;5.10;99.90;;;;;;5011156;28;20034;-61
2022/03/20 08:02:18;;;;;;;35.40;20.45;;;5.20;99.90;;;;;;5011411;28;20045;-61
2022/03/20 08:04:44;;;;;;;38.17;22.20;;;5.30;99.90;;;;;;4991449;28;20041;-61
2022/03/20 08:07:10;;;;;;;34.90;20.00;;;5.30;99.90;;;;;;5010286;28;20046;-61
2022/03/20 08:09:36;;;;;;;38.00;21.25;;;5.30;99.90;;;;;;5021803;28;20056;-61
2022/03/20 08:12:01;;;;;;;35.50;21.17;;;5.40;99.90;;;;;;5007495;28;20050;-62
2022/03/20 08:14:27;;;;;;;36.63;21.60;;;5.30;99.90;;;;;;5005528;28;20030;-62
2022/03/20 08:16:53;;;;;;;35.35;21.13;;;5.40;99.90;;;;;;5010350;28;20038;-62
2022/03/20 08:19:21;;;;;;;35.90;21.27;;;5.40;99.90;;;;;;5011084;28;20041;-61
2022/03/20 08:21:49;;;;;;;36.35;21.33;;;5.40;99.90;;;;;;4999040;28;20409;-61
2022/03/20 08:24:15;;;;;;;38.22;21.05;;;5.40;99.90;;;;;;5006689;28;20042;-61
2022/03/20 08:26:42;;;;;;;37.88;20.90;;;5.50;99.90;;;;;;5011370;28;20033;-61
2022/03/20 08:29:10;;;;;;;34.05;20.60;;;5.50;99.30;;;;;;5000128;28;20089;-61
2022/03/20 08:31:36;;;;;;;38.88;20.83;;;5.50;99.90;;;;;;5007068;28;20092;-62
2022/03/20 08:34:02;;;;;;;36.83;22.25;;;5.60;99.90;;;;;;5009390;28;20037;-61
2022/03/20 08:36:28;;;;;;;38.05;21.92;;;5.70;99.90;;;;;;5010998;28;20053;-61
2022/03/20 08:38:53;;;;;;;40.50;21.38;;;5.80;99.20;;;;;;5000991;28;20034;-61
2022/03/20 08:41:19;;;;;;;37.25;21.00;;;5.90;99.50;;;;;;5006288;28;20492;-61
2022/03/20 08:43:45;;;;;;;39.35;21.58;;;6.00;98.60;;;;;;5010301;28;20076;-61
2022/03/20 08:46:11;;;;;;;40.92;21.17;;;6.00;99.50;;;;;;5007135;28;20065;-61
2022/03/20 08:48:37;;;;;;;38.85;22.58;;;6.00;99.90;;;;;;5009076;28;20037;-61
2022/03/20 08:51:06;;;;;;;37.78;22.17;;;6.10;99.70;;;;;;4990148;28;20088;-61
2022/03/20 08:53:40;;;;;;;39.35;21.75;;;6.20;99.30;;;;;;5008206;28;20627;-61
2022/03/20 08:56:06;;;;;;;42.38;21.85;;;6.20;99.70;;;;;;5005639;28;20761;-61
2022/03/20 08:58:32;;;;;;;40.33;22.00;;;6.20;98.70;;;;;;5009380;28;20038;-61
2022/03/20 09:00:57;;;;;;;38.25;21.40;;;6.30;99.90;;;;;;5008127;28;20046;-62
2022/03/20 09:03:24;;;;;;;43.13;22.95;;;6.30;97.00;;;;;;4999864;28;20034;-61
2022/03/20 09:05:49;;;;;;;37.85;21.08;;;6.40;97.90;;;;;;5009156;28;20444;-61
2022/03/20 09:08:15;;;;;;;38.10;21.75;;;6.50;98.70;;;;;;5010951;28;20038;-61
2022/03/20 09:10:41;;;;;;;39.70;22.38;;;6.50;97.70;;;;;;4996955;28;20050;-61
2022/03/20 09:13:07;;;;;;;41.45;22.50;;;6.60;98.40;;;;;;5006109;28;20042;-61
2022/03/20 09:15:32;;;;;;;39.00;22.27;;;6.70;98.60;;;;;;5010552;28;20034;-61
2022/03/20 09:20:45;;;;;;;38.92;21.50;;;6.80;98.50;;;;;;4994953;28;20070;-61
2022/03/20 09:23:12;;;;;;;39.63;22.55;;;6.90;98.70;;;;;;5010062;28;20042;-61
2022/03/20 09:25:39;;;;;;;38.80;22.33;;;6.90;99.10;;;;;;5010735;28;20034;-61
2022/03/20 09:28:07;;;;;;;42.42;22.65;;;7.00;98.10;;;;;;5002409;28;20105;-61
2022/03/20 09:30:33;;;;;;;44.40;22.85;;;7.00;97.70;;;;;;5001114;28;20042;-61
2022/03/20 09:33:01;;;;;;;37.00;22.55;;;7.00;97.70;;;;;;5010080;28;20038;-61
2022/03/20 09:35:27;;;;;;;38.35;23.17;;;7.10;96.10;;;;;;5007141;28;20038;-62
2022/03/20 09:37:52;;;;;;;43.28;23.17;;;7.10;97.60;;;;;;5008968;28;20041;-61
2022/03/20 09:40:22;;;;;;;43.60;22.88;;;7.20;97.40;;;;;;5010407;28;20041;-62
2022/03/20 09:42:47;;;;;;;38.17;23.90;;;7.20;98.20;;;;;;5010140;28;20038;-61
2022/03/20 09:45:17;;;;;;;43.72;23.25;;;7.30;97.20;;;;;;5005966;28;20088;-61
2022/03/20 09:47:42;;;;;;;49.92;23.25;;;7.30;96.80;;;;;;5002308;28;20034;-61
2022/03/20 09:50:10;;;;;;;39.65;23.00;;;7.40;98.00;;;;;;5010432;28;20045;-61
2022/03/20 09:52:37;;;;;;;41.35;24.60;;;7.50;96.60;;;;;;5006327;28;20057;-62
2022/03/20 09:55:05;;;;;;;39.10;23.88;;;7.60;97.40;;;;;;5012210;28;20520;-61
2022/03/20 09:57:30;;;;;;;40.08;23.88;;;7.60;97.30;;;;;;5029049;28;20038;-61
2022/03/20 10:00:04;;;;;;;41.13;23.63;;;7.70;97.00;;;;;;5034041;28;20038;-61
2022/03/20 10:02:30;;;;;;;41.65;24.42;;;7.80;96.40;;;;;;5012316;28;20034;-61
2022/03/20 10:04:57;;;;;;;40.13;23.08;;;7.80;95.40;;;;;;5007817;28;20183;-61
2022/03/20 10:07:29;;;;;;;44.75;24.77;;;7.90;96.60;;;;;;5013755;28;20394;-61
2022/03/20 10:10:13;;;;;;;39.00;23.67;;;8.00;94.00;;;;;;4999724;28;20038;-61
2022/03/20 10:12:47;;;;;;;38.55;22.67;;;8.00;95.80;;;;;;5010394;28;20053;-61
2022/03/20 10:15:34;;;;;;;39.55;24.05;;;8.20;95.10;;;;;;5013923;28;20042;-61
2022/03/20 10:18:18;;;;;;;41.05;24.58;;;8.10;95.40;;;;;;5008238;28;20072;-61
2022/03/20 10:21:12;;;;;;;45.78;26.15;;;8.20;96.70;;;;;;5006793;28;20120;-61
2022/03/20 10:23:41;;;;;;;43.60;24.65;;;8.20;94.20;;;;;;5011283;28;20049;-61
2022/03/20 10:26:10;;;;;;;46.83;24.63;;;8.30;94.00;;;;;;5003312;28;20100;-61
2022/03/20 10:28:39;;;;;;;41.63;24.80;;;8.40;95.00;;;;;;5012422;28;20553;-61
2022/03/20 10:31:09;;;;;;;42.83;24.77;;;8.40;94.40;;;;;;4993943;28;20050;-61
2022/03/20 10:33:38;;;;;;;40.17;24.38;;;8.50;95.80;;;;;;4994059;28;20030;-61
2022/03/20 10:36:11;;;;;;;40.17;24.08;;;8.50;93.40;;;;;;5005907;28;20388;-61
2022/03/20 10:38:37;;;;;;;45.28;25.77;;;8.50;91.40;;;;;;5013256;28;20070;-61
2022/03/20 10:41:20;;;;;;;41.78;25.38;;;8.60;92.80;;;;;;5013164;28;20046;-62
2022/03/20 10:43:47;;;;;;;44.40;24.38;;;8.60;90.40;;;;;;5006110;28;20092;-61
2022/03/20 10:46:25;;;;;;;40.28;23.05;;;8.70;93.40;;;;;;5013104;28;20056;-61
2022/03/20 10:48:54;;;;;;;39.97;24.75;;;8.70;90.30;;;;;;5013334;28;20084;-61
2022/03/20 10:51:37;;;;;;;40.30;25.48;;;8.80;94.80;;;;;;5007760;28;20046;-61
2022/03/20 10:54:05;;;;;;;43.03;24.90;;;8.80;93.50;;;;;;5006931;28;20117;-61
2022/03/20 10:56:30;;;;;;;43.88;25.50;;;9.00;95.40;;;;;;5019777;28;20455;-61
2022/03/20 10:58:56;;;;;;;42.33;24.92;;;9.10;93.70;;;;;;5016293;28;20077;-61
2022/03/20 11:01:44;;;;;;;43.88;25.33;;;9.10;95.50;;;;;;5012399;28;20045;-61
2022/03/20 11:04:11;;;;;;;42.63;25.77;;;9.30;95.50;;;;;;5009993;28;20447;-61
2022/03/20 11:06:39;;;;;;;42.97;24.42;;;9.30;92.90;;;;;;5006679;28;20048;-61
2022/03/20 11:09:05;;;;;;;40.72;25.33;;;9.30;93.50;;;;;;5011599;28;20045;-62
2022/03/20 11:11:38;;;;;;;43.65;26.65;;;9.40;94.40;;;;;;5012545;28;20053;-61
2022/03/20 11:14:04;;;;;;;43.60;25.15;;;9.50;91.10;;;;;;5012449;28;20034;-61
2022/03/20 11:16:34;;;;;;;42.95;25.98;;;9.50;93.70;;;;;;5007968;28;20034;-61
2022/03/20 11:19:07;;;;;;;40.75;25.15;;;9.50;91.50;;;;;;5012332;28;20037;-61
2022/03/20 11:21:36;;;;;;;41.50;24.80;;;9.60;91.30;;;;;;5002722;28;20065;-69
2022/03/20 11:24:03;;;;;;;43.63;26.27;;;9.70;90.30;;;;;;5003016;28;20061;-60
2022/03/20 11:26:31;;;;;;;47.83;26.80;;;9.80;92.70;;;;;;5011958;28;20041;-60
2022/03/20 11:29:04;;;;;;;45.05;26.80;;;10.00;93.20;;;;;;5012191;28;20033;-61
2022/03/20 11:31:34;;;;;;;42.22;25.88;;;10.10;91.90;;;;;;5002862;28;20050;-61
2022/03/20 11:34:08;;;;;;;45.20;26.15;;;10.10;93.60;;;;;;5006888;28;20444;-60
2022/03/20 11:37:01;;;;;;;45.78;25.20;;;10.20;86.60;;;;;;5011424;28;20917;-61
2022/03/20 11:39:27;;;;;;;42.67;25.77;;;10.20;88.90;;;;;;5010359;28;20041;-62
2022/03/20 11:42:23;;;;;;;40.95;25.35;;;10.30;88.20;;;;;;5005075;28;20048;-61
2022/03/20 11:45:04;;;;;;;41.75;25.52;;;10.40;89.20;;;;;;5009698;28;20105;-61
2022/03/20 11:47:35;;;;;;;45.93;25.63;;;10.50;92.70;;;;;;5012201;28;20038;-61
2022/03/20 11:50:16;;;;;;;38.93;25.37;;;10.60;91.70;;;;;;4994862;28;20040;-62
2022/03/20 11:52:44;;;;;;;42.47;26.63;;;10.70;85.70;;;;;;5008714;28;20903;-61
2022/03/20 11:55:35;;;;;;;46.92;26.83;;;10.70;91.10;;;;;;5012034;28;20046;-62
2022/03/20 11:58:24;;;;;;;41.95;26.15;;;10.80;84.30;;;;;;5000060;28;20117;-61
2022/03/20 12:01:02;;;;;;;41.38;26.13;;;10.90;88.40;;;;;;5009973;28;20599;-61
2022/03/20 12:03:59;;;;;;;45.40;27.38;;;11.00;86.20;;;;;;5011540;28;20038;-61
2022/03/20 12:06:44;;;;;;;38.38;25.35;;;10.90;75.40;;;;;;5005167;28;20041;-62
2022/03/20 12:09:33;;;;;;;42.90;26.33;;;10.80;74.30;;;;;;5004756;28;20042;-60
2022/03/20 12:12:14;;;;;;;47.55;26.75;;;10.70;79.50;;;;;;5011924;28;20045;-61
2022/03/20 12:14:46;;;;;;;42.40;27.27;;;10.70;90.00;;;;;;5002071;28;20121;-62
2022/03/20 12:17:12;;;;;;;45.88;27.70;;;10.60;84.20;;;;;;5011111;28;20046;-61
2022/03/20 12:19:41;;;;;;;46.25;27.67;;;10.60;90.60;;;;;;5011854;28;20118;-61
2022/03/20 12:22:15;;;;;;;44.13;27.55;;;10.70;93.00;;;;;;5007380;28;20097;-61
2022/03/20 12:24:47;;;;;;;40.25;25.77;;;10.80;89.00;;;;;;5007771;28;20053;-61
2022/03/20 12:27:24;;;;;;;46.45;27.90;;;10.90;90.00;;;;;;5011134;28;20038;-61
2022/03/20 12:30:08;;;;;;;46.17;27.70;;;10.90;80.30;;;;;;5006604;28;20112;-61
2022/03/20 12:32:49;;;;;;;47.60;26.10;;;11.00;84.90;;;;;;5008301;28;20041;-61
2022/03/20 12:35:19;;;;;;;45.25;27.17;;;11.00;83.20;;;;;;5010752;28;20041;-61
2022/03/20 12:37:45;;;;;;;46.58;26.45;;;11.00;91.60;;;;;;5010168;28;20182;-61
2022/03/20 12:40:27;;;;;;;43.67;27.45;;;10.90;90.50;;;;;;5001245;28;20719;-61
2022/03/20 12:43:10;;;;;;;38.50;25.13;;;10.90;81.50;;;;;;5010130;28;20077;-61
2022/03/20 12:45:39;;;;;;;43.05;27.25;;;10.90;90.30;;;;;;5008187;28;20061;-61
2022/03/20 12:48:10;;;;;;;41.13;26.50;;;10.90;92.80;;;;;;5007830;28;20025;-61
2022/03/20 12:50:41;;;;;;;44.35;26.45;;;10.80;90.50;;;;;;5007152;28;20057;-61
2022/03/20 12:53:14;;;;;;;43.13;27.65;;;10.80;92.10;;;;;;5010190;28;20026;-61
2022/03/20 12:55:41;;;;;;;44.33;27.73;;;10.70;88.70;;;;;;5003308;28;20026;-61
2022/03/20 12:58:14;;;;;;;45.03;26.80;;;10.70;90.20;;;;;;5010791;28;20547;-61
2022/03/20 13:00:40;;;;;;;42.38;26.15;;;10.60;88.30;;;;;;5008186;28;20038;-61
2022/03/20 13:03:07;;;;;;;42.97;26.80;;;10.60;90.40;;;;;;5009962;28;20044;-61
2022/03/20 13:06:00;;;;;;;48.25;27.23;;;10.60;91.40;;;;;;5001791;28;20459;-61
2022/03/20 13:08:38;;;;;;;45.05;26.77;;;10.50;92.80;;;;;;5003693;28;20050;-61
2022/03/20 13:14:01;;;;;;;42.30;27.13;;;10.60;92.00;;;;;;5001570;28;20046;-61
2022/03/20 13:16:28;;;;;;;43.58;26.63;;;10.70;92.90;;;;;;5010049;28;20511;-61
2022/03/20 13:18:53;;;;;;;42.15;27.10;;;10.70;93.30;;;;;;5010862;28;20643;-61
2022/03/20 13:21:19;;;;;;;45.42;27.90;;;10.80;93.10;;;;;;5001093;28;20049;-61
2022/03/20 13:23:46;;;;;;;45.72;26.67;;;10.90;93.70;;;;;;5009401;28;20042;-61
2022/03/20 13:26:17;;;;;;;42.88;26.90;;;11.00;92.00;;;;;;5005509;28;20484;-61
2022/03/20 13:28:43;;;;;;;45.63;27.70;;;11.00;92.60;;;;;;5008112;28;20132;-61
2022/03/20 13:31:19;;;;;;;43.00;26.35;;;11.10;94.10;;;;;;5001993;28;20038;-61
2022/03/20 13:33:55;;;;;;;44.13;27.63;;;11.10;91.40;;;;;;5013876;28;20653;-61
2022/03/20 13:36:23;;;;;;;45.80;27.90;;;11.20;90.80;;;;;;5010405;28;20117;-61
2022/03/20 13:38:51;;;;;;;40.78;27.17;;;11.20;93.50;;;;;;5008636;28;20093;-61
2022/03/20 13:41:19;;;;;;;42.42;27.00;;;11.20;93.40;;;;;;5011133;28;20042;-61
2022/03/20 13:43:47;;;;;;;47.40;26.42;;;11.20;92.50;;;;;;5135543;23;20227;-61